Barrington Passage, Canada
Current Conditions -  °F | °C
As of 5:00 AM on Wednesday 28 Jan 2015 (Local Time) from CYQI Reporting Station
Light Snow Light Snow  
Wind Chill: 17°   Ceiling: 500
Heat Index: 28°   Visibility: 2mi
Dew Point: 28°   Wind: 14mph
Humidity: 100%   Direction: 60°ENE
Pressure: 29.34"   Gusts: 23mph
Location:  43.52°N, 65.6°W
Report Text: CYQI 280900Z 06012G20KT 2SM -SN DRSN VV005 M02/M02 A2934 RMK SN8 /S03/ SLP938
Loading
Personal Weather Stations






























Interactive Weather Map New forecast layout! Learn more

10-Day Weather Forecast

Advertisements
Track Severe Weather on mobile